createdAt,value
2022-12-26T00:00:27.110Z,3.42
2022-12-26T00:03:15.783Z,5.28
2022-12-26T00:05:58.231Z,3.90
2022-12-26T00:08:46.617Z,5.03
2022-12-26T00:11:29.069Z,4.93
2022-12-26T00:14:20.578Z,4.57
2022-12-26T00:17:06.538Z,5.38
2022-12-26T00:19:55.541Z,4.50
2022-12-26T00:22:50.541Z,4.38
2022-12-26T00:25:36.579Z,5.28
2022-12-26T00:28:24.504Z,5.25
2022-12-26T00:31:07.924Z,4.63
2022-12-26T00:33:57.623Z,5.28
2022-12-26T00:36:39.529Z,5.57
2022-12-26T00:39:27.525Z,4.60
2022-12-26T00:42:09.447Z,5.40
2022-12-26T00:44:57.581Z,4.90
2022-12-26T00:47:39.514Z,6.38
2022-12-26T00:50:22.604Z,5.55
2022-12-26T00:53:12.536Z,6.40
2022-12-26T00:55:55.010Z,5.25
2022-12-26T00:58:43.556Z,10.18
2022-12-26T01:01:25.751Z,9.02
2022-12-26T01:04:14.667Z,12.52
2022-12-26T01:06:57.971Z,7.47
2022-12-26T01:09:46.570Z,6.70
2022-12-26T01:12:28.508Z,8.93
2022-12-26T01:15:17.547Z,8.48
2022-12-26T01:18:00.777Z,11.00
2022-12-26T01:20:49.686Z,9.32
2022-12-26T01:23:46.642Z,9.25
2022-12-26T01:26:28.683Z,9.02
2022-12-26T01:29:16.548Z,7.22
2022-12-26T01:31:58.500Z,7.45
2022-12-26T01:34:46.581Z,6.65
2022-12-26T01:37:28.647Z,6.38
2022-12-26T01:40:19.560Z,6.95
2022-12-26T01:43:01.418Z,6.38
2022-12-26T01:45:50.608Z,5.35
2022-12-26T01:48:34.478Z,5.40
2022-12-26T01:51:23.555Z,5.50
2022-12-26T01:54:39.566Z,5.10
2022-12-26T01:57:17.601Z,4.78
2022-12-26T02:00:06.581Z,5.15
2022-12-26T02:03:19.650Z,4.35
2022-12-26T02:06:08.549Z,6.30
2022-12-26T02:08:51.792Z,4.65
2022-12-26T02:11:44.613Z,3.90
2022-12-26T02:14:27.820Z,4.30
2022-12-26T02:17:15.596Z,4.65
2022-12-26T02:20:04.094Z,3.75
2022-12-26T02:23:26.583Z,3.10
2022-12-26T02:26:42.655Z,3.55
2022-12-26T02:30:15.800Z,3.35
2022-12-26T02:33:23.616Z,3.03
2022-12-26T02:36:27.748Z,2.92
2022-12-26T02:39:45.105Z,4.22
2022-12-26T02:42:39.556Z,3.22
2022-12-26T02:46:04.650Z,2.85
2022-12-26T02:49:11.590Z,5.13
2022-12-26T02:52:19.414Z,2.50
2022-12-26T02:55:30.621Z,2.47
2022-12-26T02:58:39.362Z,2.50
2022-12-26T03:01:54.973Z,2.88
2022-12-26T03:05:05.289Z,2.78
2022-12-26T03:08:06.664Z,2.22
2022-12-26T03:11:13.624Z,2.08
2022-12-26T03:13:58.816Z,1.75
2022-12-26T03:17:04.615Z,2.40
2022-12-26T03:20:02.725Z,2.53
2022-12-26T03:22:56.676Z,2.35
2022-12-26T03:26:05.549Z,2.85
2022-12-26T03:31:35.783Z,3.78
2022-12-26T03:34:26.581Z,2.92
2022-12-26T03:37:47.870Z,2.97
2022-12-26T03:41:08.604Z,2.90
2022-12-26T03:44:30.602Z,2.90
2022-12-26T03:47:37.600Z,2.40
2022-12-26T03:50:55.644Z,2.40
2022-12-26T03:54:02.292Z,2.25
2022-12-26T03:57:12.643Z,2.35
2022-12-26T04:00:16.891Z,2.33
2022-12-26T04:03:24.611Z,2.15
2022-12-26T04:06:41.603Z,2.00
2022-12-26T04:09:47.666Z,2.10
2022-12-26T04:12:55.663Z,2.90
2022-12-26T04:16:01.811Z,2.20
2022-12-26T04:19:14.596Z,2.33
2022-12-26T04:22:23.533Z,2.10
2022-12-26T04:28:56.605Z,1.90
2022-12-26T04:32:00.456Z,2.08
2022-12-26T04:35:14.624Z,1.92
2022-12-26T04:38:16.332Z,1.83
2022-12-26T04:41:25.626Z,2.20
2022-12-26T04:44:11.921Z,2.47
2022-12-26T04:47:01.646Z,1.92
2022-12-26T04:50:08.332Z,1.63
2022-12-26T04:53:08.731Z,1.80
2022-12-26T04:55:57.613Z,2.28
2022-12-26T04:58:40.970Z,1.80
2022-12-26T05:01:45.806Z,1.50
2022-12-26T05:04:57.622Z,1.33
2022-12-26T05:08:03.698Z,1.42
2022-12-26T05:10:45.916Z,1.55
2022-12-26T05:13:33.614Z,1.48
2022-12-26T05:16:40.643Z,1.55
2022-12-26T05:19:46.298Z,1.30
2022-12-26T05:22:44.637Z,1.45
2022-12-26T05:25:47.447Z,1.35
2022-12-26T05:28:51.688Z,1.42
2022-12-26T05:31:36.935Z,1.60
2022-12-26T05:34:27.625Z,1.48
2022-12-26T05:37:09.921Z,2.03
2022-12-26T05:39:58.639Z,1.20
2022-12-26T05:42:40.658Z,1.45
2022-12-26T05:45:29.645Z,1.10
2022-12-26T05:48:19.664Z,1.38
2022-12-26T05:51:05.930Z,1.42
2022-12-26T05:53:54.686Z,0.90
2022-12-26T05:56:36.867Z,1.42
2022-12-26T05:59:25.654Z,1.00
2022-12-26T06:02:12.554Z,0.93
2022-12-26T06:05:03.680Z,1.20
2022-12-26T06:07:45.898Z,1.13
2022-12-26T06:10:35.713Z,1.10
2022-12-26T06:13:24.659Z,1.05
2022-12-26T06:16:07.851Z,1.00
2022-12-26T06:18:56.634Z,0.85
2022-12-26T06:21:40.057Z,0.98
2022-12-26T06:24:28.669Z,0.90
2022-12-26T06:27:10.683Z,0.90
2022-12-26T06:30:06.032Z,1.52
2022-12-26T06:32:48.789Z,0.70
2022-12-26T06:35:37.731Z,0.68
2022-12-26T06:38:29.669Z,0.82
2022-12-26T06:41:19.469Z,1.02
2022-12-26T06:44:10.583Z,0.80
2022-12-26T06:46:56.004Z,0.75
2022-12-26T06:49:43.663Z,0.60
2022-12-26T06:52:25.871Z,0.93
2022-12-26T06:55:15.679Z,0.80
2022-12-26T06:57:59.881Z,1.13
2022-12-26T07:00:48.737Z,0.95
2022-12-26T07:06:16.841Z,0.85
2022-12-26T07:08:45.385Z,1.25
2022-12-26T07:11:15.427Z,0.90
2022-12-26T07:13:44.201Z,0.80
2022-12-26T07:16:15.375Z,1.05
2022-12-26T07:18:44.091Z,1.10
2022-12-26T07:21:15.668Z,0.85
2022-12-26T07:23:44.449Z,1.10
2022-12-26T07:26:12.696Z,1.13
2022-12-26T07:28:41.092Z,0.90
2022-12-26T07:31:09.951Z,1.27
2022-12-26T07:33:38.291Z,1.25
2022-12-26T07:36:08.187Z,1.15
2022-12-26T07:38:38.099Z,1.02
2022-12-26T07:41:20.795Z,1.20
2022-12-26T07:43:49.344Z,1.42
2022-12-26T07:46:17.789Z,1.00
2022-12-26T07:48:46.171Z,1.08
2022-12-26T07:51:15.113Z,1.10
2022-12-26T07:53:46.094Z,0.93
2022-12-26T07:56:14.372Z,1.00
2022-12-26T07:58:42.946Z,1.20
2022-12-26T08:01:11.615Z,1.10
2022-12-26T08:03:40.143Z,0.95
2022-12-26T08:06:11.710Z,1.40
2022-12-26T08:08:44.027Z,0.88
2022-12-26T08:11:19.000Z,1.25
2022-12-26T08:13:47.575Z,1.20
2022-12-26T08:16:16.950Z,1.55
2022-12-26T08:18:45.588Z,1.52
2022-12-26T08:21:14.203Z,1.70
2022-12-26T08:23:42.575Z,1.42
2022-12-26T08:26:20.454Z,1.30
2022-12-26T08:28:51.028Z,1.50
2022-12-26T08:31:21.662Z,1.02
2022-12-26T08:33:50.660Z,1.30
2022-12-26T08:36:19.257Z,1.45
2022-12-26T08:38:47.998Z,1.48
2022-12-26T08:41:18.432Z,1.20
2022-12-26T08:46:39.980Z,1.10
2022-12-26T08:49:08.299Z,1.33
2022-12-26T08:51:36.837Z,1.35
2022-12-26T08:54:06.027Z,1.23
2022-12-26T08:56:34.420Z,1.20
2022-12-26T08:59:04.396Z,2.13
2022-12-26T09:01:34.324Z,1.17
2022-12-26T09:04:06.701Z,0.98
2022-12-26T09:06:37.129Z,1.30
2022-12-26T09:09:06.780Z,1.40
2022-12-26T09:11:35.719Z,1.40
2022-12-26T09:14:06.204Z,0.90
2022-12-26T09:16:49.246Z,1.30
2022-12-26T09:19:18.798Z,1.20
2022-12-26T09:21:48.010Z,1.55
2022-12-26T09:24:18.980Z,1.92
2022-12-26T09:26:47.713Z,1.00
2022-12-26T09:29:17.552Z,1.00
2022-12-26T09:31:45.962Z,1.27
2022-12-26T09:34:14.586Z,1.65
2022-12-26T09:36:42.890Z,1.77
2022-12-26T09:39:12.885Z,2.10
2022-12-26T09:42:01.077Z,1.15
2022-12-26T09:44:43.824Z,0.80
2022-12-26T09:47:24.189Z,1.27
2022-12-26T09:49:57.459Z,1.60
2022-12-26T09:52:35.701Z,1.10
2022-12-26T09:55:12.177Z,1.50
2022-12-26T09:57:43.793Z,1.17
2022-12-26T10:00:19.702Z,1.33
2022-12-26T10:02:53.815Z,0.98
2022-12-26T10:05:23.086Z,1.33
2022-12-26T10:07:56.910Z,1.13
2022-12-26T10:10:30.839Z,1.45
2022-12-26T10:13:06.184Z,1.63
2022-12-26T10:15:44.386Z,1.40
2022-12-26T10:18:26.156Z,1.50
2022-12-26T10:21:16.142Z,1.55
2022-12-26T10:23:47.260Z,1.48
2022-12-26T10:26:20.530Z,1.40
2022-12-26T10:28:53.101Z,1.80
2022-12-26T10:31:29.494Z,1.42
2022-12-26T10:34:04.907Z,1.60
2022-12-26T10:36:40.839Z,1.40
2022-12-26T10:39:19.173Z,1.45
2022-12-26T10:41:50.822Z,1.58
2022-12-26T10:44:25.581Z,1.52
2022-12-26T10:47:14.399Z,2.40
2022-12-26T10:49:46.061Z,1.15
2022-12-26T10:52:17.164Z,1.33
2022-12-26T10:54:49.004Z,1.25
2022-12-26T10:57:17.666Z,1.08
2022-12-26T10:59:50.007Z,2.25
2022-12-26T11:02:27.318Z,1.50
2022-12-26T11:07:53.345Z,1.60
2022-12-26T11:10:24.211Z,1.60
2022-12-26T11:12:54.378Z,1.10
2022-12-26T11:15:32.088Z,1.25
2022-12-26T11:18:17.135Z,1.75
2022-12-26T11:20:46.844Z,1.52
2022-12-26T11:23:27.710Z,1.83
2022-12-26T11:25:58.036Z,1.50
2022-12-26T11:28:32.625Z,1.48
2022-12-26T11:31:02.405Z,1.48
2022-12-26T11:33:36.792Z,1.30
2022-12-26T11:36:17.828Z,1.20
2022-12-26T11:38:54.192Z,1.38
2022-12-26T11:41:40.411Z,1.05
2022-12-26T11:44:18.770Z,0.73
2022-12-26T11:46:51.449Z,1.00
2022-12-26T11:49:25.485Z,1.13
2022-12-26T11:51:59.250Z,1.25
2022-12-26T11:54:32.012Z,1.10
2022-12-26T11:57:20.423Z,1.60
2022-12-26T11:59:50.187Z,1.13
2022-12-26T12:02:29.531Z,1.25
2022-12-26T12:05:13.578Z,0.98
2022-12-26T12:08:38.203Z,0.90
2022-12-26T12:11:26.344Z,1.65
2022-12-26T12:14:49.489Z,1.23
2022-12-26T12:17:30.120Z,1.08
2022-12-26T12:20:18.635Z,1.40
2022-12-26T12:23:17.597Z,1.58
2022-12-26T12:26:01.701Z,1.15
2022-12-26T12:28:47.113Z,1.75
2022-12-26T12:31:25.959Z,1.50
2022-12-26T12:34:05.745Z,1.15
2022-12-26T12:36:44.445Z,0.82
2022-12-26T12:39:17.972Z,1.33
2022-12-26T12:42:18.727Z,1.27
2022-12-26T12:44:59.575Z,1.38
2022-12-26T12:47:39.854Z,1.38
2022-12-26T12:50:18.276Z,1.70
2022-12-26T12:52:55.914Z,1.63
2022-12-26T12:55:42.355Z,1.65
2022-12-26T12:58:28.443Z,2.22
2022-12-26T13:01:14.723Z,1.58
2022-12-26T13:03:52.606Z,1.70
2022-12-26T13:06:26.815Z,1.52
2022-12-26T13:09:00.094Z,1.33
2022-12-26T13:11:37.371Z,1.25
2022-12-26T13:14:11.383Z,1.50
2022-12-26T13:16:43.945Z,2.40
2022-12-26T13:19:20.041Z,1.70
2022-12-26T13:21:51.662Z,1.48
2022-12-26T13:24:30.313Z,1.30
2022-12-26T13:27:03.670Z,1.17
2022-12-26T13:29:40.536Z,1.40
2022-12-26T13:32:20.955Z,1.48
2022-12-26T13:34:50.119Z,1.38
2022-12-26T13:37:52.130Z,1.48
2022-12-26T13:40:25.519Z,2.15
2022-12-26T13:43:15.275Z,1.80
2022-12-26T13:45:54.943Z,2.25
2022-12-26T13:49:03.325Z,2.03
2022-12-26T13:51:58.138Z,2.35
2022-12-26T13:54:29.174Z,1.55
2022-12-26T13:57:39.973Z,1.52
2022-12-26T14:00:20.273Z,1.55
2022-12-26T14:03:20.190Z,1.27
2022-12-26T14:06:07.345Z,1.60
2022-12-26T14:08:51.380Z,1.33
2022-12-26T14:11:35.933Z,1.45
2022-12-26T14:14:17.612Z,1.20
2022-12-26T14:16:55.418Z,2.30
2022-12-26T14:19:40.041Z,1.35
2022-12-26T14:22:16.986Z,1.77
2022-12-26T14:25:00.993Z,1.92
2022-12-26T14:27:38.884Z,1.30
2022-12-26T14:30:21.883Z,1.77
2022-12-26T14:33:07.102Z,1.50
2022-12-26T14:35:41.723Z,2.17
2022-12-26T14:38:25.019Z,1.20
2022-12-26T14:41:02.931Z,1.63
2022-12-26T14:43:36.823Z,1.90
2022-12-26T14:46:31.163Z,1.23
2022-12-26T14:49:01.980Z,1.35
2022-12-26T14:51:37.763Z,1.20
2022-12-26T14:54:39.209Z,1.77
2022-12-26T14:57:44.251Z,1.52
2022-12-26T15:00:27.248Z,1.63
2022-12-26T15:03:34.755Z,1.20
2022-12-26T15:06:32.888Z,2.05
2022-12-26T15:09:22.711Z,1.20
2022-12-26T15:12:26.971Z,1.27
2022-12-26T15:15:32.370Z,1.00
2022-12-26T15:33:42.160Z,1.60
2022-12-26T15:36:23.799Z,1.25
2022-12-26T15:38:59.928Z,1.77
2022-12-26T15:41:39.414Z,1.85
2022-12-26T15:44:29.482Z,1.63
2022-12-26T15:47:11.686Z,1.58
2022-12-26T15:49:56.870Z,1.38
2022-12-26T15:52:37.467Z,1.48
2022-12-26T15:55:24.036Z,1.20
2022-12-26T15:58:01.642Z,1.67
2022-12-26T16:00:33.369Z,1.80
2022-12-26T16:03:21.824Z,1.77
2022-12-26T16:05:59.477Z,2.17
2022-12-26T16:08:50.964Z,2.58
2022-12-26T16:11:22.265Z,2.42
2022-12-26T16:13:54.448Z,2.60
2022-12-26T16:16:27.915Z,2.42
2022-12-26T16:18:56.773Z,2.20
2022-12-26T16:21:43.863Z,2.10
2022-12-26T16:24:14.722Z,1.83
2022-12-26T16:26:46.297Z,2.42
2022-12-26T16:29:19.763Z,3.08
2022-12-26T16:31:49.203Z,2.03
2022-12-26T16:34:20.613Z,1.85
2022-12-26T16:36:51.979Z,2.10
2022-12-26T16:39:24.286Z,1.70
2022-12-26T16:42:05.666Z,2.10
2022-12-26T16:44:38.817Z,1.98
2022-12-26T16:47:15.275Z,2.20
2022-12-26T16:49:45.234Z,2.13
2022-12-26T16:52:34.296Z,1.88
2022-12-26T16:55:25.001Z,1.83
2022-12-26T16:57:56.413Z,1.67
2022-12-26T17:00:26.713Z,1.77
2022-12-26T17:02:58.495Z,1.52
2022-12-26T17:05:31.006Z,1.63
2022-12-26T17:08:04.123Z,1.63
2022-12-26T17:10:35.732Z,2.95
2022-12-26T17:13:06.513Z,1.50
2022-12-26T17:15:37.513Z,1.20
2022-12-26T17:18:31.025Z,2.42
2022-12-26T17:21:18.131Z,2.75
2022-12-26T17:24:03.436Z,2.70
2022-12-26T17:26:32.563Z,2.42
2022-12-26T17:29:01.208Z,2.55
2022-12-26T17:31:35.226Z,3.45
2022-12-26T17:34:08.842Z,2.60
2022-12-26T17:39:28.606Z,2.67
2022-12-26T17:41:59.351Z,2.63
2022-12-26T17:44:39.467Z,3.35
2022-12-26T17:47:16.744Z,3.53
2022-12-26T17:49:47.292Z,2.90
2022-12-26T17:52:18.724Z,1.90
2022-12-26T17:54:50.471Z,3.05
2022-12-26T17:57:22.234Z,2.50
2022-12-26T17:59:51.793Z,2.50
2022-12-26T18:02:20.480Z,3.58
2022-12-26T18:04:50.820Z,2.25
2022-12-26T18:07:27.270Z,2.38
2022-12-26T18:10:01.311Z,2.70
2022-12-26T18:12:30.130Z,4.28
2022-12-26T18:15:02.176Z,3.78
2022-12-26T18:20:02.399Z,2.20
2022-12-26T18:22:30.977Z,3.20
2022-12-26T18:25:01.056Z,2.50
2022-12-26T18:27:32.449Z,3.05
2022-12-26T18:30:01.914Z,3.05
2022-12-26T18:32:31.955Z,2.72
2022-12-26T18:35:00.968Z,3.20
2022-12-26T18:37:33.683Z,1.88
2022-12-26T18:40:03.607Z,2.53
2022-12-26T18:42:32.228Z,2.17
2022-12-26T18:45:02.699Z,3.17
2022-12-26T18:47:31.138Z,1.52
2022-12-26T18:49:59.739Z,2.90
2022-12-26T18:52:28.079Z,2.72
2022-12-26T18:54:56.423Z,2.35
2022-12-26T18:57:26.529Z,2.13
2022-12-26T18:59:55.102Z,2.40
2022-12-26T19:02:23.523Z,2.28
2022-12-26T19:04:52.155Z,2.15
2022-12-26T19:07:21.332Z,3.10
2022-12-26T19:09:55.048Z,3.00
2022-12-26T19:12:23.720Z,2.42
2022-12-26T19:14:54.005Z,2.70
2022-12-26T19:17:22.345Z,2.35
2022-12-26T19:19:50.885Z,2.53
2022-12-26T19:22:19.210Z,3.17
2022-12-26T19:24:48.126Z,2.60
2022-12-26T19:27:16.695Z,2.80
2022-12-26T19:29:45.056Z,3.05
2022-12-26T19:32:14.872Z,3.03
2022-12-26T19:34:43.370Z,3.78
2022-12-26T19:37:11.839Z,3.00
2022-12-26T19:39:40.133Z,2.10
2022-12-26T19:42:08.628Z,3.03
2022-12-26T19:44:37.127Z,2.75
2022-12-26T19:47:12.216Z,2.15
2022-12-26T19:49:43.309Z,1.80
2022-12-26T19:52:12.385Z,3.17
2022-12-26T19:54:40.841Z,3.78
2022-12-26T19:57:09.824Z,2.30
2022-12-26T19:59:38.191Z,2.20
2022-12-26T20:02:06.956Z,3.47
2022-12-26T20:04:35.571Z,2.90
2022-12-26T20:07:05.277Z,2.90
2022-12-26T20:09:33.748Z,3.00
2022-12-26T20:12:02.958Z,2.85
2022-12-26T20:14:32.565Z,2.30
2022-12-26T20:17:05.397Z,2.38
2022-12-26T20:19:34.661Z,3.83
2022-12-26T20:22:04.665Z,3.15
2022-12-26T20:24:33.249Z,2.22
2022-12-26T20:27:02.299Z,2.88
2022-12-26T20:29:31.223Z,2.50
2022-12-26T20:32:00.326Z,2.20
2022-12-26T20:34:29.299Z,3.28
2022-12-26T20:36:57.747Z,2.78
2022-12-26T20:39:27.677Z,2.55
2022-12-26T20:41:56.186Z,2.88
2022-12-26T20:44:25.565Z,2.55
2022-12-26T20:46:54.089Z,2.63
2022-12-26T20:49:24.063Z,2.30
2022-12-26T20:51:52.385Z,2.30
2022-12-26T20:54:20.779Z,2.58
2022-12-26T20:56:51.040Z,3.10
2022-12-26T20:59:20.198Z,3.17
2022-12-26T21:01:49.263Z,3.00
2022-12-26T21:04:19.899Z,2.63
2022-12-26T21:06:49.626Z,3.20
2022-12-26T21:09:18.225Z,2.40
2022-12-26T21:11:46.884Z,2.88
2022-12-26T21:14:20.659Z,2.75
2022-12-26T21:16:51.582Z,2.78
2022-12-26T21:19:20.736Z,2.65
2022-12-26T21:21:51.411Z,4.10
2022-12-26T21:24:25.255Z,2.78
2022-12-26T21:26:54.110Z,2.55
2022-12-26T21:29:26.994Z,2.60
2022-12-26T21:34:26.846Z,2.33
2022-12-26T21:37:13.754Z,4.28
2022-12-26T21:39:42.668Z,2.50
2022-12-26T21:42:11.250Z,2.17
2022-12-26T21:44:40.914Z,2.60
2022-12-26T21:47:09.487Z,3.25
2022-12-26T21:49:38.077Z,3.05
2022-12-26T21:52:07.841Z,3.78
2022-12-26T21:54:53.885Z,2.70
2022-12-26T21:57:23.214Z,2.90
2022-12-26T21:59:59.626Z,2.22
2022-12-26T22:02:47.759Z,2.75
2022-12-26T22:05:17.369Z,2.45
2022-12-26T22:07:45.966Z,2.72
2022-12-26T22:10:34.898Z,2.40
2022-12-26T22:13:04.253Z,2.58
2022-12-26T22:15:51.543Z,2.50
2022-12-26T22:18:20.396Z,2.63
2022-12-26T22:20:48.951Z,2.63
2022-12-26T22:23:17.233Z,2.47
2022-12-26T22:25:52.952Z,2.30
2022-12-26T22:28:23.494Z,2.42
2022-12-26T22:30:53.806Z,1.90
2022-12-26T22:33:22.146Z,2.55
2022-12-26T22:35:50.862Z,2.40
2022-12-26T22:38:19.447Z,1.60
2022-12-26T22:40:56.172Z,2.47
2022-12-26T22:43:25.702Z,2.33
2022-12-26T22:45:55.909Z,2.88
2022-12-26T22:48:25.130Z,2.78
2022-12-26T22:50:55.876Z,2.20
2022-12-26T22:53:25.592Z,2.25
2022-12-26T22:55:58.614Z,2.92
2022-12-26T22:58:27.538Z,2.03
2022-12-26T23:00:57.797Z,2.88
2022-12-26T23:03:27.259Z,2.75
2022-12-26T23:05:58.744Z,2.60
2022-12-26T23:08:29.014Z,3.17
2022-12-26T23:10:59.044Z,2.35
2022-12-26T23:13:28.052Z,3.08
2022-12-26T23:16:06.458Z,1.95
2022-12-26T23:18:59.330Z,2.58
2022-12-26T23:21:45.204Z,2.53
2022-12-26T23:24:23.906Z,1.92
2022-12-26T23:27:19.614Z,2.67
2022-12-26T23:30:06.254Z,1.90
2022-12-26T23:32:39.219Z,1.58
2022-12-26T23:35:11.231Z,1.80
2022-12-26T23:37:44.863Z,1.98
2022-12-26T23:40:16.783Z,2.88
2022-12-26T23:42:45.234Z,2.33
2022-12-26T23:45:14.704Z,2.95
2022-12-26T23:47:45.766Z,1.83
2022-12-26T23:50:15.767Z,2.30
2022-12-26T23:52:44.561Z,2.00
2022-12-26T23:55:13.884Z,2.20
2022-12-26T23:57:42.375Z,1.98
